createdAt,value
2023-05-17T00:02:00.854Z,99.90
2023-05-17T00:04:30.976Z,99.90
2023-05-17T00:07:01.122Z,99.90
2023-05-17T00:09:34.060Z,99.90
2023-05-17T00:12:04.179Z,99.90
2023-05-17T00:14:34.372Z,99.90
2023-05-17T00:17:04.461Z,99.90
2023-05-17T00:19:34.635Z,99.90
2023-05-17T00:22:04.834Z,99.90
2023-05-17T00:24:37.578Z,99.90
2023-05-17T00:27:08.616Z,99.90
2023-05-17T00:29:38.719Z,99.90
2023-05-17T00:32:10.279Z,99.90
2023-05-17T00:34:40.390Z,99.90
2023-05-17T00:37:10.493Z,99.90
2023-05-17T00:39:43.214Z,99.90
2023-05-17T00:42:14.270Z,99.90
2023-05-17T00:44:44.364Z,99.90
2023-05-17T00:47:14.701Z,99.90
2023-05-17T00:49:45.867Z,99.90
2023-05-17T00:52:16.483Z,99.90
2023-05-17T00:54:49.971Z,99.90
2023-05-17T00:57:20.215Z,99.90
2023-05-17T00:59:50.783Z,99.90
2023-05-17T01:02:20.915Z,99.90
2023-05-17T01:04:51.900Z,99.90
2023-05-17T01:07:22.059Z,99.90
2023-05-17T01:09:55.053Z,99.90
2023-05-17T01:12:37.956Z,99.90
2023-05-17T01:15:17.291Z,99.90
2023-05-17T01:17:58.631Z,99.90
2023-05-17T01:20:33.619Z,99.90
2023-05-17T01:23:24.060Z,99.90
2023-05-17T01:26:09.928Z,99.90
2023-05-17T01:28:44.070Z,99.90
2023-05-17T01:31:14.974Z,99.90
2023-05-17T01:33:45.255Z,99.90
2023-05-17T01:36:15.519Z,99.90
2023-05-17T01:38:45.593Z,99.90
2023-05-17T01:41:28.269Z,99.90
2023-05-17T01:44:10.420Z,99.90
2023-05-17T01:46:46.281Z,99.90
2023-05-17T01:49:24.989Z,99.90
2023-05-17T01:52:01.164Z,99.90
2023-05-17T01:54:46.346Z,99.90
2023-05-17T01:57:17.814Z,99.90
2023-05-17T01:59:52.910Z,99.90
2023-05-17T02:02:23.047Z,99.90
2023-05-17T02:04:53.367Z,99.90
2023-05-17T02:07:23.463Z,99.90
2023-05-17T02:09:53.893Z,99.90
2023-05-17T02:12:23.968Z,99.90
2023-05-17T02:14:56.647Z,99.90
2023-05-17T02:17:27.226Z,99.90
2023-05-17T02:19:57.352Z,99.90
2023-05-17T02:22:27.450Z,99.90
2023-05-17T02:24:57.514Z,99.90
2023-05-17T02:27:27.609Z,99.90
2023-05-17T02:30:02.277Z,99.90
2023-05-17T02:32:32.357Z,99.90
2023-05-17T02:35:02.842Z,99.90
2023-05-17T02:37:32.997Z,99.90
2023-05-17T02:40:03.121Z,99.90
2023-05-17T02:42:33.195Z,99.90
2023-05-17T02:45:06.855Z,99.90
2023-05-17T02:47:37.061Z,99.90
2023-05-17T02:50:08.441Z,99.90
2023-05-17T02:52:38.636Z,99.90
2023-05-17T02:55:09.969Z,99.90
2023-05-17T02:57:40.065Z,99.90
2023-05-17T03:00:14.296Z,99.90
2023-05-17T03:02:44.433Z,99.90
2023-05-17T03:05:14.677Z,99.90
2023-05-17T03:07:44.766Z,99.90
2023-05-17T03:10:15.068Z,99.90
2023-05-17T03:12:45.196Z,99.90
2023-05-17T03:15:18.387Z,99.90
2023-05-17T03:17:48.575Z,99.90
2023-05-17T03:20:19.244Z,99.90
2023-05-17T03:22:49.332Z,99.90
2023-05-17T03:25:19.850Z,99.90
2023-05-17T03:27:49.951Z,99.90
2023-05-17T03:30:22.852Z,99.90
2023-05-17T03:32:53.063Z,99.90
2023-05-17T03:35:23.493Z,99.90
2023-05-17T03:37:53.606Z,99.90
2023-05-17T03:40:23.757Z,99.90
2023-05-17T03:42:54.419Z,99.90
2023-05-17T03:45:27.244Z,99.90
2023-05-17T03:47:57.752Z,99.90
2023-05-17T03:50:28.159Z,99.90
2023-05-17T03:52:58.268Z,99.90
2023-05-17T03:55:28.473Z,99.90
2023-05-17T03:57:58.825Z,99.90
2023-05-17T04:00:31.554Z,99.90
2023-05-17T04:03:01.720Z,99.90
2023-05-17T04:05:32.982Z,99.90
2023-05-17T04:08:03.093Z,99.90
2023-05-17T04:10:33.724Z,99.90
2023-05-17T04:13:03.800Z,99.90
2023-05-17T04:15:36.465Z,99.90
2023-05-17T04:18:06.981Z,99.90
2023-05-17T04:20:37.075Z,99.90
2023-05-17T04:23:07.400Z,99.90
2023-05-17T04:25:37.923Z,99.90
2023-05-17T04:28:08.177Z,99.90
2023-05-17T04:30:44.996Z,99.90
2023-05-17T04:33:15.159Z,99.90
2023-05-17T04:35:45.921Z,99.90
2023-05-17T04:38:16.522Z,99.90
2023-05-17T04:40:46.596Z,99.90
2023-05-17T04:43:16.691Z,99.90
2023-05-17T04:45:50.561Z,99.90
2023-05-17T04:48:20.983Z,99.90
2023-05-17T04:50:51.207Z,99.90
2023-05-17T04:53:21.737Z,99.90
2023-05-17T04:55:52.988Z,99.90
2023-05-17T04:58:24.400Z,99.90
2023-05-17T05:00:57.086Z,99.90
2023-05-17T05:03:27.576Z,99.90
2023-05-17T05:06:00.211Z,99.90
2023-05-17T05:08:31.705Z,99.90
2023-05-17T05:11:01.797Z,99.90
2023-05-17T05:13:31.948Z,99.90
2023-05-17T05:16:04.693Z,99.90
2023-05-17T05:18:34.905Z,99.90
2023-05-17T05:21:05.032Z,99.90
2023-05-17T05:23:35.139Z,99.90
2023-05-17T05:26:05.264Z,99.90
2023-05-17T05:28:35.421Z,99.90
2023-05-17T05:31:08.326Z,99.90
2023-05-17T05:33:38.570Z,99.90
2023-05-17T05:36:09.769Z,99.90
2023-05-17T05:38:39.875Z,99.90
2023-05-17T05:41:09.929Z,99.90
2023-05-17T05:43:40.067Z,99.90
2023-05-17T05:46:12.760Z,99.90
2023-05-17T05:48:43.710Z,99.90
2023-05-17T05:51:14.003Z,99.90
2023-05-17T05:53:44.142Z,99.90
2023-05-17T05:56:14.691Z,99.90
2023-05-17T05:58:47.808Z,99.90
2023-05-17T06:01:20.478Z,99.90
2023-05-17T06:03:50.728Z,99.90
2023-05-17T06:06:21.011Z,99.90
2023-05-17T06:08:51.115Z,99.90
2023-05-17T06:11:21.822Z,99.90
2023-05-17T06:13:51.884Z,99.90
2023-05-17T06:16:24.607Z,99.90
2023-05-17T06:18:54.767Z,99.90
2023-05-17T06:21:25.669Z,99.90
2023-05-17T06:23:56.361Z,99.90
2023-05-17T06:26:26.419Z,99.90
2023-05-17T06:28:56.514Z,99.90
2023-05-17T06:31:29.298Z,99.90
2023-05-17T06:33:59.393Z,99.90
2023-05-17T06:36:30.674Z,99.90
2023-05-17T06:39:02.508Z,99.90
2023-05-17T06:41:32.681Z,99.90
2023-05-17T06:44:02.744Z,99.90
2023-05-17T06:46:35.489Z,99.90
2023-05-17T06:49:05.887Z,99.90
2023-05-17T06:51:36.192Z,99.90
2023-05-17T06:54:06.500Z,99.90
2023-05-17T06:56:36.643Z,99.90
2023-05-17T06:59:06.721Z,99.90
2023-05-17T07:01:39.922Z,99.90
2023-05-17T07:04:09.977Z,99.90
2023-05-17T07:06:40.112Z,99.90
2023-05-17T07:09:10.445Z,99.90
2023-05-17T07:11:40.550Z,99.90
2023-05-17T07:14:10.629Z,99.90
2023-05-17T07:16:43.864Z,99.90
2023-05-17T07:19:14.024Z,99.90
2023-05-17T07:21:44.598Z,99.90
2023-05-17T07:24:14.698Z,99.90
2023-05-17T07:26:45.487Z,99.90
2023-05-17T07:29:15.694Z,99.90
2023-05-17T07:31:48.364Z,99.90
2023-05-17T07:34:18.462Z,99.90
2023-05-17T07:36:48.576Z,99.90
2023-05-17T07:39:18.641Z,99.90
2023-05-17T07:41:48.768Z,99.60
2023-05-17T07:44:18.889Z,99.90
2023-05-17T07:46:51.736Z,99.50
2023-05-17T07:49:21.923Z,99.50
2023-05-17T07:51:52.331Z,99.00
2023-05-17T07:54:27.485Z,99.10
2023-05-17T07:56:58.134Z,99.20
2023-05-17T07:59:28.461Z,98.80
2023-05-17T08:02:01.169Z,98.40
2023-05-17T08:04:31.319Z,97.90
2023-05-17T08:07:01.454Z,97.50
2023-05-17T08:09:31.562Z,98.20
2023-05-17T08:12:02.200Z,97.50
2023-05-17T08:14:32.418Z,96.60
2023-05-17T08:17:05.116Z,96.40
2023-05-17T08:19:35.351Z,96.80
2023-05-17T08:22:05.444Z,97.00
2023-05-17T08:24:36.192Z,95.20
2023-05-17T08:27:06.787Z,95.50
2023-05-17T08:29:40.541Z,95.10
2023-05-17T08:32:13.536Z,94.90
2023-05-17T08:34:43.590Z,94.80
2023-05-17T08:37:13.730Z,95.40
2023-05-17T08:39:43.938Z,94.90
2023-05-17T08:42:14.078Z,94.40
2023-05-17T08:44:44.407Z,94.40
2023-05-17T08:47:26.137Z,94.90
2023-05-17T08:50:01.158Z,93.70
2023-05-17T08:52:34.217Z,92.80
2023-05-17T08:55:06.388Z,91.80
2023-05-17T08:57:39.464Z,93.40
2023-05-17T09:00:16.353Z,93.00
2023-05-17T09:02:49.920Z,92.70
2023-05-17T09:05:20.577Z,92.80
2023-05-17T09:07:53.151Z,92.40
2023-05-17T09:10:23.783Z,92.20
2023-05-17T09:12:55.323Z,93.20
2023-05-17T09:15:27.836Z,92.70
2023-05-17T09:18:01.095Z,92.10
2023-05-17T09:20:34.590Z,90.60
2023-05-17T09:23:05.000Z,91.50
2023-05-17T09:25:35.278Z,92.10
2023-05-17T09:28:07.862Z,91.50
2023-05-17T09:30:40.599Z,91.80
2023-05-17T09:33:17.705Z,92.10
2023-05-17T09:35:49.039Z,90.80
2023-05-17T09:38:19.117Z,90.70
2023-05-17T09:40:51.077Z,90.90
2023-05-17T09:43:27.380Z,91.50
2023-05-17T09:46:00.926Z,90.80
2023-05-17T09:48:33.675Z,90.70
2023-05-17T09:51:04.531Z,89.70
2023-05-17T09:53:40.093Z,87.80
2023-05-17T09:56:12.451Z,87.70
2023-05-17T09:58:42.592Z,90.10
2023-05-17T10:01:13.497Z,88.00
2023-05-17T10:03:46.801Z,90.00
2023-05-17T10:06:33.205Z,90.20
2023-05-17T10:09:14.526Z,85.20
2023-05-17T10:11:49.610Z,84.70
2023-05-17T10:14:23.338Z,86.20
2023-05-17T10:16:54.607Z,86.50
2023-05-17T10:19:30.952Z,87.10
2023-05-17T10:22:18.270Z,87.70
2023-05-17T10:24:53.839Z,88.60
2023-05-17T10:27:24.553Z,88.40
2023-05-17T10:29:57.299Z,86.40
2023-05-17T10:32:30.189Z,86.50
2023-05-17T10:35:11.537Z,85.10
2023-05-17T10:37:44.114Z,83.60
2023-05-17T10:40:17.748Z,82.50
2023-05-17T10:42:54.679Z,85.70
2023-05-17T10:45:28.190Z,85.20
2023-05-17T10:48:00.907Z,84.60
2023-05-17T10:50:34.374Z,83.70
2023-05-17T10:53:05.918Z,84.40
2023-05-17T10:55:43.284Z,85.80
2023-05-17T10:58:21.731Z,84.50
2023-05-17T11:00:55.757Z,84.80
2023-05-17T11:03:34.227Z,83.30
2023-05-17T11:06:25.370Z,84.80
2023-05-17T11:09:18.695Z,85.80
2023-05-17T11:12:08.152Z,83.70
2023-05-17T11:14:51.564Z,84.90
2023-05-17T11:17:24.318Z,82.10
2023-05-17T11:20:27.701Z,80.50
2023-05-17T11:23:04.383Z,80.60
2023-05-17T11:25:36.631Z,81.40
2023-05-17T11:28:12.408Z,82.90
2023-05-17T11:30:51.837Z,79.20
2023-05-17T11:33:32.941Z,79.70
2023-05-17T11:36:09.040Z,80.90
2023-05-17T11:38:41.813Z,80.10
2023-05-17T11:41:26.466Z,81.30
2023-05-17T11:43:57.691Z,83.70
2023-05-17T11:46:27.889Z,82.00
2023-05-17T11:48:58.715Z,81.10
2023-05-17T11:51:29.366Z,80.90
2023-05-17T11:54:03.737Z,81.90
2023-05-17T11:56:43.465Z,80.70
2023-05-17T11:59:14.083Z,79.40
2023-05-17T12:01:48.998Z,79.50
2023-05-17T12:04:27.902Z,80.30
2023-05-17T12:06:58.851Z,78.20
2023-05-17T12:09:31.750Z,76.20
2023-05-17T12:12:05.565Z,78.20
2023-05-17T12:14:35.692Z,79.10
2023-05-17T12:17:10.341Z,78.10
2023-05-17T12:19:40.504Z,79.00
2023-05-17T12:22:13.018Z,78.30
2023-05-17T12:24:46.703Z,79.50
2023-05-17T12:27:17.014Z,77.40
2023-05-17T12:29:47.096Z,78.30
2023-05-17T12:32:17.325Z,78.40
2023-05-17T12:34:48.159Z,77.00
2023-05-17T12:37:18.577Z,78.00
2023-05-17T12:39:51.635Z,75.70
2023-05-17T12:42:21.860Z,77.30
2023-05-17T12:44:51.966Z,77.10
2023-05-17T12:47:22.091Z,74.90
2023-05-17T12:49:57.345Z,76.50
2023-05-17T12:52:27.457Z,75.10
2023-05-17T12:55:02.370Z,77.90
2023-05-17T12:57:33.109Z,76.70
2023-05-17T13:00:09.970Z,75.70
2023-05-17T13:02:40.885Z,76.40
2023-05-17T13:05:21.898Z,74.70
2023-05-17T13:07:52.136Z,73.30
2023-05-17T13:10:30.830Z,74.10
2023-05-17T13:13:03.236Z,75.10
2023-05-17T13:15:34.415Z,75.90
2023-05-17T13:18:16.752Z,75.30
2023-05-17T13:20:47.189Z,74.30
2023-05-17T13:23:18.864Z,76.30
2023-05-17T13:25:51.553Z,74.70
2023-05-17T13:28:21.627Z,74.40
2023-05-17T13:30:52.761Z,74.40
2023-05-17T13:33:23.821Z,74.50
2023-05-17T13:35:54.046Z,74.20
2023-05-17T13:38:24.150Z,74.80
2023-05-17T13:40:57.067Z,78.10
2023-05-17T13:43:27.186Z,73.70
2023-05-17T13:45:59.159Z,75.00
2023-05-17T13:48:29.330Z,74.80
2023-05-17T13:50:59.937Z,74.40
2023-05-17T13:53:30.223Z,77.30
2023-05-17T13:56:03.054Z,75.30
2023-05-17T13:58:33.336Z,74.30
2023-05-17T14:01:03.639Z,75.00
2023-05-17T14:03:33.896Z,75.80
2023-05-17T14:06:04.196Z,72.70
2023-05-17T14:08:34.375Z,73.60
2023-05-17T14:11:07.142Z,74.60
2023-05-17T14:13:37.558Z,74.80
2023-05-17T14:16:08.781Z,75.20
2023-05-17T14:18:39.033Z,75.60
2023-05-17T14:21:09.252Z,73.50
2023-05-17T14:23:39.332Z,73.80
2023-05-17T14:26:12.062Z,74.50
2023-05-17T14:28:42.253Z,73.80
2023-05-17T14:31:13.302Z,73.80
2023-05-17T14:33:43.441Z,74.20
2023-05-17T14:36:14.334Z,74.50
2023-05-17T14:38:44.560Z,73.30
2023-05-17T14:41:18.692Z,73.90
2023-05-17T14:43:48.813Z,75.10
2023-05-17T14:46:19.803Z,76.20
2023-05-17T14:48:52.366Z,73.30
2023-05-17T14:51:22.911Z,74.30
2023-05-17T14:53:52.980Z,74.50
2023-05-17T14:56:25.753Z,75.80
2023-05-17T14:58:55.833Z,73.40
2023-05-17T15:01:25.943Z,75.70
2023-05-17T15:03:56.101Z,74.50
2023-05-17T15:06:26.799Z,74.00
2023-05-17T15:08:57.679Z,75.60
2023-05-17T15:11:30.414Z,73.90
2023-05-17T15:14:00.566Z,74.60
2023-05-17T15:16:31.050Z,73.40
2023-05-17T15:19:01.337Z,74.30
2023-05-17T15:21:31.706Z,75.30
2023-05-17T15:24:01.814Z,75.00
2023-05-17T15:26:34.510Z,75.30
2023-05-17T15:29:04.658Z,74.60
2023-05-17T15:31:34.852Z,75.90
2023-05-17T15:34:05.341Z,74.40
2023-05-17T15:36:36.659Z,73.90
2023-05-17T15:39:06.936Z,74.10
2023-05-17T15:41:40.669Z,74.60
2023-05-17T15:44:11.351Z,73.90
2023-05-17T15:46:41.517Z,75.50
2023-05-17T15:49:11.820Z,74.40
2023-05-17T15:51:41.912Z,75.50
2023-05-17T15:54:12.102Z,75.20
2023-05-17T15:56:44.832Z,74.00
2023-05-17T15:59:15.842Z,74.80
2023-05-17T16:01:46.593Z,74.70
2023-05-17T16:04:17.111Z,76.00
2023-05-17T16:06:47.334Z,76.40
2023-05-17T16:09:17.531Z,76.10
2023-05-17T16:11:50.401Z,76.10
2023-05-17T16:14:20.637Z,74.20
2023-05-17T16:16:50.883Z,73.80
2023-05-17T16:19:21.514Z,74.40
2023-05-17T16:21:51.689Z,74.20
2023-05-17T16:24:21.766Z,73.50
2023-05-17T16:26:54.548Z,73.50
2023-05-17T16:29:24.623Z,74.40
2023-05-17T16:31:55.574Z,74.90
2023-05-17T16:34:27.538Z,74.90
2023-05-17T16:36:57.754Z,75.90
2023-05-17T16:39:28.930Z,73.30
2023-05-17T16:42:01.649Z,72.30
2023-05-17T16:44:31.783Z,73.00
2023-05-17T16:47:02.248Z,74.00
2023-05-17T16:49:32.858Z,74.20
2023-05-17T16:52:02.969Z,73.70
2023-05-17T16:54:33.865Z,74.20
2023-05-17T16:57:08.543Z,74.70
2023-05-17T16:59:38.739Z,73.80
2023-05-17T17:02:09.208Z,74.90
2023-05-17T17:04:39.496Z,75.20
2023-05-17T17:07:09.587Z,74.40
2023-05-17T17:09:39.777Z,75.30
2023-05-17T17:12:23.448Z,75.10
2023-05-17T17:14:55.031Z,74.80
2023-05-17T17:17:25.146Z,75.50
2023-05-17T17:19:55.234Z,75.90
2023-05-17T17:22:25.613Z,76.30
2023-05-17T17:24:55.702Z,77.30
2023-05-17T17:27:28.417Z,77.80
2023-05-17T17:29:58.544Z,77.40
2023-05-17T17:32:29.053Z,76.70
2023-05-17T17:34:59.262Z,77.00
2023-05-17T17:37:29.393Z,75.70
2023-05-17T17:39:59.469Z,75.90
2023-05-17T17:42:32.484Z,76.00
2023-05-17T17:45:02.593Z,75.80
2023-05-17T17:47:32.728Z,76.90
2023-05-17T17:50:02.867Z,76.20
2023-05-17T17:52:32.958Z,77.30
2023-05-17T17:55:03.110Z,77.00
2023-05-17T17:57:35.798Z,76.50
2023-05-17T18:00:06.350Z,77.60
2023-05-17T18:02:36.458Z,78.80
2023-05-17T18:05:07.341Z,77.70
2023-05-17T18:07:37.469Z,77.60
2023-05-17T18:10:09.489Z,77.80
2023-05-17T18:12:42.205Z,78.50
2023-05-17T18:15:14.267Z,78.30
2023-05-17T18:17:44.704Z,79.20
2023-05-17T18:20:14.984Z,79.10
2023-05-17T18:22:45.087Z,80.00
2023-05-17T18:25:15.180Z,80.20
2023-05-17T18:27:47.892Z,80.40
2023-05-17T18:30:18.095Z,80.60
2023-05-17T18:32:48.347Z,80.70
2023-05-17T18:35:18.972Z,80.70
2023-05-17T18:37:49.087Z,81.30
2023-05-17T18:40:19.550Z,82.40
2023-05-17T18:42:52.230Z,81.90
2023-05-17T18:45:22.916Z,82.00
2023-05-17T18:47:53.056Z,81.80
2023-05-17T18:50:23.255Z,82.50
2023-05-17T18:52:54.865Z,82.50
2023-05-17T18:55:26.724Z,82.40
2023-05-17T18:57:59.539Z,83.20
2023-05-17T19:00:29.786Z,83.70
2023-05-17T19:03:00.154Z,83.90
2023-05-17T19:05:32.469Z,84.00
2023-05-17T19:08:04.004Z,83.70
2023-05-17T19:10:34.082Z,84.90
2023-05-17T19:13:08.042Z,83.90
2023-05-17T19:15:38.278Z,85.30
2023-05-17T19:18:09.573Z,84.80
2023-05-17T19:20:39.746Z,85.20
2023-05-17T19:23:09.798Z,85.30
2023-05-17T19:25:39.895Z,85.90
2023-05-17T19:28:12.562Z,85.40
2023-05-17T19:30:42.679Z,86.10
2023-05-17T19:33:12.830Z,87.00
2023-05-17T19:35:43.189Z,86.10
2023-05-17T19:38:13.494Z,86.10
2023-05-17T19:40:43.554Z,87.30
2023-05-17T19:43:16.266Z,86.30
2023-05-17T19:45:46.352Z,86.90
2023-05-17T19:48:16.803Z,87.20
2023-05-17T19:50:46.874Z,87.50
2023-05-17T19:53:16.962Z,87.40
2023-05-17T19:55:47.029Z,89.40
2023-05-17T19:58:20.726Z,88.00
2023-05-17T20:00:50.834Z,87.70
2023-05-17T20:03:21.117Z,88.40
2023-05-17T20:05:51.346Z,88.90
2023-05-17T20:08:21.449Z,89.50
2023-05-17T20:10:51.634Z,89.20
2023-05-17T20:13:28.703Z,89.50
2023-05-17T20:15:58.796Z,89.90
2023-05-17T20:18:30.572Z,90.00
2023-05-17T20:21:00.900Z,90.20
2023-05-17T20:23:31.140Z,90.30
2023-05-17T20:26:01.347Z,90.60
2023-05-17T20:28:36.544Z,90.50
2023-05-17T20:31:06.593Z,90.70
2023-05-17T20:33:36.672Z,90.80
2023-05-17T20:36:07.420Z,91.00
2023-05-17T20:38:37.501Z,91.30
2023-05-17T20:41:08.075Z,91.20
2023-05-17T20:43:40.822Z,91.20
2023-05-17T20:46:10.969Z,91.30
2023-05-17T20:48:43.197Z,91.40
2023-05-17T20:51:13.641Z,91.60
2023-05-17T20:53:43.798Z,91.60
2023-05-17T20:56:14.330Z,91.70
2023-05-17T20:58:47.018Z,91.90
2023-05-17T21:01:17.306Z,91.80
2023-05-17T21:03:47.676Z,92.00
2023-05-17T21:06:17.789Z,91.90
2023-05-17T21:08:47.897Z,92.00
2023-05-17T21:11:21.445Z,92.00
2023-05-17T21:13:54.306Z,92.10
2023-05-17T21:16:24.481Z,92.10
2023-05-17T21:18:54.670Z,92.20
2023-05-17T21:21:24.793Z,92.30
2023-05-17T21:23:54.888Z,92.50
2023-05-17T21:28:58.330Z,92.50
2023-05-17T21:31:31.873Z,92.80
2023-05-17T21:34:01.974Z,92.90
2023-05-17T21:36:32.127Z,93.00
2023-05-17T21:39:02.254Z,93.10
2023-05-17T21:41:32.359Z,93.10
2023-05-17T21:44:04.981Z,93.30
2023-05-17T21:46:35.091Z,93.40
2023-05-17T21:49:05.146Z,93.60
2023-05-17T21:51:35.252Z,93.50
2023-05-17T21:54:05.360Z,94.00
2023-05-17T21:56:35.433Z,93.90
2023-05-17T21:59:08.087Z,93.80
2023-05-17T22:01:38.226Z,94.10
2023-05-17T22:04:09.439Z,94.20
2023-05-17T22:06:39.818Z,94.00
2023-05-17T22:09:09.884Z,94.40
2023-05-17T22:11:41.094Z,94.40
2023-05-17T22:14:14.374Z,94.70
2023-05-17T22:16:44.716Z,95.00
2023-05-17T22:19:14.850Z,95.20
2023-05-17T22:21:44.985Z,95.40
2023-05-17T22:24:15.051Z,95.60
2023-05-17T22:26:45.151Z,95.80
2023-05-17T22:29:17.819Z,95.80
2023-05-17T22:31:50.331Z,95.90
2023-05-17T22:34:20.459Z,96.00
2023-05-17T22:36:50.549Z,96.30
2023-05-17T22:39:20.600Z,96.70
2023-05-17T22:41:50.718Z,96.40
2023-05-17T22:44:23.403Z,96.90
2023-05-17T22:46:53.534Z,97.50
2023-05-17T22:49:23.608Z,97.50
2023-05-17T22:51:53.684Z,97.60
2023-05-17T22:54:23.892Z,98.10
2023-05-17T22:56:53.946Z,98.60
2023-05-17T22:59:26.634Z,98.80
2023-05-17T23:01:56.891Z,98.80
2023-05-17T23:04:27.652Z,99.00
2023-05-17T23:07:02.432Z,98.90
2023-05-17T23:09:33.823Z,99.20
2023-05-17T23:12:05.817Z,99.80
2023-05-17T23:14:40.007Z,99.90
2023-05-17T23:17:10.119Z,99.90
2023-05-17T23:19:40.815Z,99.90
2023-05-17T23:22:10.932Z,99.90
2023-05-17T23:24:40.983Z,99.90
2023-05-17T23:27:12.834Z,99.90
2023-05-17T23:29:46.093Z,99.90
2023-05-17T23:32:16.181Z,99.90
2023-05-17T23:34:47.540Z,99.90
2023-05-17T23:37:17.710Z,99.90
2023-05-17T23:39:47.751Z,99.90
2023-05-17T23:42:18.977Z,99.90
2023-05-17T23:44:51.643Z,99.90
2023-05-17T23:47:22.386Z,99.90
2023-05-17T23:49:52.961Z,99.90
2023-05-17T23:52:23.949Z,99.90
2023-05-17T23:54:57.503Z,99.90
2023-05-17T23:57:27.785Z,99.90
